createdAt,value
2019-01-26T00:02:15.987Z,40.07
2019-01-26T00:04:45.586Z,38.20
2019-01-26T00:07:15.174Z,31.70
2019-01-26T00:09:45.094Z,38.23
2019-01-26T00:12:14.764Z,41.10
2019-01-26T00:14:44.357Z,33.23
2019-01-26T00:17:13.943Z,34.67
2019-01-26T00:19:43.566Z,28.73
2019-01-26T00:22:13.139Z,31.13
2019-01-26T00:24:42.739Z,29.60
2019-01-26T00:27:12.348Z,28.80
2019-01-26T00:29:41.936Z,28.13
2019-01-26T00:32:11.690Z,28.80
2019-01-26T00:34:41.292Z,28.70
2019-01-26T00:37:11.067Z,28.87
2019-01-26T00:39:40.655Z,24.57
2019-01-26T00:42:10.263Z,29.47
2019-01-26T00:44:39.873Z,31.23
2019-01-26T00:47:09.487Z,28.57
2019-01-26T00:49:39.318Z,32.63
2019-01-26T00:52:08.987Z,32.23
2019-01-26T00:54:38.574Z,30.20
2019-01-26T00:57:08.194Z,29.20
2019-01-26T00:59:37.787Z,29.50
2019-01-26T01:02:07.477Z,28.90
2019-01-26T01:04:37.131Z,29.03
2019-01-26T01:07:07.076Z,30.63
2019-01-26T01:09:37.023Z,31.93
2019-01-26T01:12:06.679Z,30.03
2019-01-26T01:14:36.283Z,37.47
2019-01-26T01:17:06.026Z,35.77
2019-01-26T01:19:35.643Z,29.77
2019-01-26T01:22:05.544Z,29.77
2019-01-26T01:24:35.134Z,30.60
2019-01-26T01:27:04.784Z,40.00
2019-01-26T01:29:34.395Z,33.97
2019-01-26T01:32:04.074Z,32.50
2019-01-26T01:34:33.671Z,31.43
2019-01-26T01:37:03.246Z,29.20
2019-01-26T01:39:32.934Z,30.80
2019-01-26T01:42:02.654Z,36.97
2019-01-26T01:44:32.550Z,42.73
2019-01-26T01:47:02.132Z,41.23
2019-01-26T01:49:31.773Z,46.70
2019-01-26T01:52:01.384Z,31.07
2019-01-26T01:54:30.983Z,33.47
2019-01-26T01:57:00.815Z,35.13
2019-01-26T01:59:30.419Z,30.77
2019-01-26T02:02:00.078Z,34.80
2019-01-26T02:04:29.750Z,35.23
2019-01-26T02:06:59.777Z,36.93
2019-01-26T02:09:29.441Z,40.50
2019-01-26T02:11:59.023Z,31.23
2019-01-26T02:14:28.647Z,36.13
2019-01-26T02:16:58.224Z,28.47
2019-01-26T02:19:27.913Z,30.57
2019-01-26T02:21:57.525Z,31.60
2019-01-26T02:24:27.134Z,33.50
2019-01-26T02:26:56.756Z,35.07
2019-01-26T02:29:26.362Z,33.87
2019-01-26T02:31:55.995Z,49.77
2019-01-26T02:34:25.601Z,33.10
2019-01-26T02:36:55.304Z,39.00
2019-01-26T02:39:24.894Z,50.47
2019-01-26T02:41:54.503Z,26.70
2019-01-26T02:44:24.119Z,40.73
2019-01-26T02:46:57.970Z,31.87
2019-01-26T02:49:25.098Z,31.10
2019-01-26T02:51:54.767Z,32.70
2019-01-26T02:54:24.374Z,30.83
2019-01-26T02:56:53.998Z,29.23
2019-01-26T02:59:23.598Z,29.37
2019-01-26T03:01:53.207Z,31.23
2019-01-26T03:04:23.130Z,25.87
2019-01-26T03:06:53.147Z,28.07
2019-01-26T03:09:22.364Z,28.87
2019-01-26T03:11:51.890Z,26.43
2019-01-26T03:14:21.482Z,29.87
2019-01-26T03:16:51.124Z,30.07
2019-01-26T03:19:20.717Z,30.77
2019-01-26T03:21:50.335Z,25.07
2019-01-26T03:24:19.938Z,28.73
2019-01-26T03:26:49.801Z,41.20
2019-01-26T03:29:19.423Z,34.57
2019-01-26T03:31:49.032Z,28.47
2019-01-26T03:34:18.691Z,36.70
2019-01-26T03:36:48.584Z,31.00
2019-01-26T03:39:18.182Z,26.90
2019-01-26T03:41:47.806Z,31.07
2019-01-26T03:44:17.407Z,41.50
2019-01-26T03:46:47.271Z,29.73
2019-01-26T03:49:16.883Z,31.33
2019-01-26T03:51:46.491Z,41.57
2019-01-26T03:54:16.193Z,42.87
2019-01-26T03:56:45.975Z,28.30
2019-01-26T03:59:15.579Z,32.90
2019-01-26T04:01:45.371Z,31.67
2019-01-26T04:04:14.985Z,26.47
2019-01-26T04:06:44.587Z,26.47
2019-01-26T04:09:14.198Z,27.57
2019-01-26T04:11:43.883Z,25.27
2019-01-26T04:14:13.550Z,25.23
2019-01-26T04:16:43.151Z,24.40
2019-01-26T04:19:12.730Z,24.10
2019-01-26T04:21:42.417Z,24.87
2019-01-26T04:24:12.011Z,24.57
2019-01-26T04:26:41.615Z,17.33
2019-01-26T04:29:11.519Z,25.03
2019-01-26T04:31:41.206Z,21.90
2019-01-26T04:34:11.073Z,20.03
2019-01-26T04:36:40.675Z,24.50
2019-01-26T04:39:10.275Z,23.87
2019-01-26T04:41:39.871Z,16.80
2019-01-26T04:44:09.445Z,20.63
2019-01-26T04:46:39.036Z,19.80
2019-01-26T04:49:08.631Z,20.13
2019-01-26T04:51:38.307Z,21.00
2019-01-26T04:54:07.895Z,20.77
2019-01-26T04:56:37.519Z,14.40
2019-01-26T04:59:08.075Z,16.80
2019-01-26T05:01:37.682Z,14.40
2019-01-26T05:04:07.264Z,16.43
2019-01-26T05:06:36.867Z,17.60
2019-01-26T05:09:08.513Z,13.87
2019-01-26T05:11:38.127Z,15.73
2019-01-26T05:14:07.776Z,17.50
2019-01-26T05:16:37.413Z,17.70
2019-01-26T05:19:07.751Z,14.17
2019-01-26T05:21:37.675Z,15.43
2019-01-26T05:24:07.403Z,12.93
2019-01-26T05:26:37.122Z,18.50
2019-01-26T05:29:06.748Z,15.13
2019-01-26T05:31:36.334Z,21.50
2019-01-26T05:34:06.031Z,14.90
2019-01-26T05:36:35.639Z,15.70
2019-01-26T05:39:08.079Z,16.20
2019-01-26T05:41:37.670Z,14.70
2019-01-26T05:44:07.260Z,14.70
2019-01-26T05:46:37.128Z,12.80
2019-01-26T05:49:06.744Z,15.20
2019-01-26T05:51:36.659Z,16.63
2019-01-26T05:54:06.435Z,15.03
2019-01-26T05:56:36.090Z,14.27
2019-01-26T05:59:05.766Z,17.70
2019-01-26T06:01:35.363Z,16.13
2019-01-26T06:04:05.152Z,20.73
2019-01-26T06:06:34.996Z,15.70
2019-01-26T06:09:07.859Z,14.87
2019-01-26T06:11:37.476Z,15.90
2019-01-26T06:14:07.155Z,20.10
2019-01-26T06:16:36.778Z,17.13
2019-01-26T06:19:06.355Z,13.63
2019-01-26T06:21:35.963Z,15.00
2019-01-26T06:24:06.061Z,17.17
2019-01-26T06:26:35.687Z,16.83
2019-01-26T06:29:05.335Z,15.37
2019-01-26T06:31:34.968Z,14.93
2019-01-26T06:34:04.745Z,13.80
2019-01-26T06:36:34.791Z,14.90
2019-01-26T06:39:07.473Z,16.90
2019-01-26T06:41:37.084Z,17.23
2019-01-26T06:44:07.157Z,19.10
2019-01-26T06:46:36.758Z,17.10
2019-01-26T06:49:06.365Z,17.23
2019-01-26T06:51:36.274Z,15.13
2019-01-26T06:54:06.168Z,15.80
2019-01-26T06:56:35.759Z,12.90
2019-01-26T06:59:05.437Z,14.47
2019-01-26T07:01:35.030Z,13.83
2019-01-26T07:04:05.707Z,15.60
2019-01-26T07:06:42.845Z,14.07
2019-01-26T07:09:12.434Z,12.97
2019-01-26T07:11:42.031Z,13.33
2019-01-26T07:14:11.647Z,12.50
2019-01-26T07:16:42.535Z,9.70
2019-01-26T07:19:12.140Z,12.67
2019-01-26T07:21:41.794Z,19.87
2019-01-26T07:24:11.391Z,12.97
2019-01-26T07:26:41.013Z,13.20
2019-01-26T07:29:10.609Z,18.63
2019-01-26T07:31:40.223Z,12.73
2019-01-26T07:34:09.847Z,15.17
2019-01-26T07:36:39.515Z,13.77
2019-01-26T07:39:10.236Z,13.23
2019-01-26T07:41:39.818Z,11.70
2019-01-26T07:44:09.427Z,15.93
2019-01-26T07:46:39.006Z,15.60
2019-01-26T07:49:09.473Z,16.90
2019-01-26T07:51:39.210Z,17.70
2019-01-26T07:54:09.352Z,15.90
2019-01-26T07:56:38.949Z,14.60
2019-01-26T07:59:08.556Z,15.63
2019-01-26T08:01:39.182Z,18.17
2019-01-26T08:04:08.884Z,14.47
2019-01-26T08:06:38.462Z,19.63
2019-01-26T08:09:09.578Z,20.30
2019-01-26T08:11:39.170Z,17.30
2019-01-26T08:14:09.868Z,17.77
2019-01-26T08:16:39.457Z,15.57
2019-01-26T08:19:09.066Z,17.20
2019-01-26T08:21:39.483Z,15.97
2019-01-26T08:24:09.174Z,10.77
2019-01-26T08:26:38.791Z,15.03
2019-01-26T08:29:08.404Z,14.07
2019-01-26T08:31:38.003Z,13.27
2019-01-26T08:34:07.610Z,17.27
2019-01-26T08:36:37.198Z,17.13
2019-01-26T08:39:08.640Z,22.70
2019-01-26T08:41:38.466Z,19.53
2019-01-26T08:44:08.066Z,17.37
2019-01-26T08:46:37.646Z,13.50
2019-01-26T08:49:08.695Z,14.90
2019-01-26T08:51:38.604Z,14.47
2019-01-26T08:54:08.219Z,15.37
2019-01-26T08:56:37.870Z,12.37
2019-01-26T08:59:07.499Z,14.80
2019-01-26T09:01:37.075Z,12.40
2019-01-26T09:04:14.346Z,13.53
2019-01-26T09:06:46.714Z,14.60
2019-01-26T09:09:16.677Z,11.53
2019-01-26T09:11:46.264Z,11.63
2019-01-26T09:14:16.921Z,18.43
2019-01-26T09:16:46.526Z,14.73
2019-01-26T09:19:17.694Z,15.23
2019-01-26T09:21:47.487Z,16.20
2019-01-26T09:24:17.084Z,17.20
2019-01-26T09:26:46.760Z,11.13
2019-01-26T09:29:16.359Z,14.77
2019-01-26T09:31:46.151Z,10.50
2019-01-26T09:34:15.742Z,9.50
2019-01-26T09:36:45.363Z,19.40
2019-01-26T09:39:14.950Z,15.53
2019-01-26T09:41:44.547Z,6.57
2019-01-26T09:44:14.313Z,11.33
2019-01-26T09:46:43.894Z,13.50
2019-01-26T09:49:13.554Z,10.50
2019-01-26T09:51:43.207Z,6.87
2019-01-26T09:54:12.892Z,10.50
2019-01-26T09:56:42.562Z,7.80
2019-01-26T09:59:13.662Z,8.17
2019-01-26T10:01:43.407Z,9.37
2019-01-26T10:04:13.251Z,8.67
2019-01-26T10:06:43.266Z,7.57
2019-01-26T10:09:13.464Z,6.27
2019-01-26T10:11:43.071Z,6.30
2019-01-26T10:14:12.653Z,8.03
2019-01-26T10:16:42.274Z,8.80
2019-01-26T10:19:11.925Z,9.37
2019-01-26T10:21:41.866Z,8.10
2019-01-26T10:24:11.748Z,8.00
2019-01-26T10:26:41.446Z,4.20
2019-01-26T10:29:11.031Z,6.60
2019-01-26T10:31:41.195Z,9.67
2019-01-26T10:34:10.866Z,7.83
2019-01-26T10:36:48.626Z,8.20
2019-01-26T10:39:18.978Z,5.27
2019-01-26T10:42:26.287Z,7.27
2019-01-26T10:44:56.019Z,8.90
2019-01-26T10:47:25.897Z,5.00
2019-01-26T10:49:55.567Z,8.40
2019-01-26T10:52:25.482Z,9.23
2019-01-26T10:54:55.074Z,4.73
2019-01-26T10:57:24.782Z,9.07
2019-01-26T10:59:54.359Z,9.73
2019-01-26T11:02:24.040Z,6.00
2019-01-26T11:04:53.650Z,12.83
2019-01-26T11:07:23.259Z,10.20
2019-01-26T11:09:52.858Z,5.07
2019-01-26T11:12:22.453Z,7.90
2019-01-26T11:14:52.039Z,5.77
2019-01-26T11:17:21.643Z,8.87
2019-01-26T11:19:51.230Z,5.83
2019-01-26T11:22:20.819Z,7.70
2019-01-26T11:24:50.428Z,5.10
2019-01-26T11:27:20.044Z,5.63
2019-01-26T11:29:49.878Z,14.67
2019-01-26T11:32:19.491Z,19.97
2019-01-26T11:34:50.158Z,7.17
2019-01-26T11:37:19.763Z,7.73
2019-01-26T11:39:56.424Z,9.23
2019-01-26T11:42:26.024Z,7.43
2019-01-26T11:45:13.449Z,7.20
2019-01-26T11:47:43.146Z,13.00
2019-01-26T11:50:18.287Z,10.13
2019-01-26T11:52:47.974Z,18.23
2019-01-26T11:55:35.635Z,12.40
2019-01-26T11:58:05.548Z,8.47
2019-01-26T12:00:59.332Z,11.30
2019-01-26T12:03:32.410Z,8.10
2019-01-26T12:06:08.944Z,9.07
2019-01-26T12:08:38.526Z,16.10
2019-01-26T12:11:08.222Z,10.20
2019-01-26T12:13:37.907Z,7.87
2019-01-26T12:16:07.630Z,7.80
2019-01-26T12:18:37.219Z,8.37
2019-01-26T12:21:06.915Z,6.77
2019-01-26T12:23:36.590Z,10.70
2019-01-26T12:26:06.527Z,14.00
2019-01-26T12:28:36.162Z,7.43
2019-01-26T12:31:05.830Z,9.93
2019-01-26T12:33:35.514Z,4.53
2019-01-26T12:36:05.503Z,7.07
2019-01-26T12:38:35.142Z,9.50
2019-01-26T12:41:04.986Z,9.13
2019-01-26T12:43:34.611Z,9.60
2019-01-26T12:46:04.936Z,19.23
2019-01-26T12:48:34.617Z,8.50
2019-01-26T12:51:04.389Z,8.67
2019-01-26T12:53:34.770Z,8.80
2019-01-26T12:56:05.805Z,5.30
2019-01-26T12:58:35.408Z,6.60
2019-01-26T13:01:06.151Z,13.47
2019-01-26T13:03:35.821Z,6.00
2019-01-26T13:06:05.806Z,9.77
2019-01-26T13:08:35.497Z,12.10
2019-01-26T13:11:15.087Z,15.93
2019-01-26T13:13:44.786Z,16.30
2019-01-26T13:16:14.462Z,14.53
2019-01-26T13:18:44.151Z,10.37
2019-01-26T13:21:13.824Z,7.63
2019-01-26T13:23:43.495Z,10.13
2019-01-26T13:26:13.091Z,11.47
2019-01-26T13:28:42.686Z,9.00
2019-01-26T13:31:12.287Z,9.80
2019-01-26T13:33:41.900Z,10.73
2019-01-26T13:36:11.575Z,7.93
2019-01-26T13:38:41.262Z,9.33
2019-01-26T13:41:11.243Z,10.03
2019-01-26T13:43:40.837Z,9.93
2019-01-26T13:46:10.444Z,8.70
2019-01-26T13:48:40.404Z,6.90
2019-01-26T13:51:13.088Z,6.53
2019-01-26T13:53:41.906Z,5.50
2019-01-26T13:56:11.639Z,8.10
2019-01-26T13:58:41.252Z,8.50
2019-01-26T14:01:10.991Z,10.83
2019-01-26T14:03:40.915Z,5.23
2019-01-26T14:06:10.498Z,5.20
2019-01-26T14:08:40.192Z,6.23
2019-01-26T14:11:09.866Z,8.87
2019-01-26T14:13:39.474Z,8.87
2019-01-26T14:16:09.066Z,5.30
2019-01-26T14:18:38.916Z,5.40
2019-01-26T14:21:08.513Z,7.50
2019-01-26T14:23:38.180Z,6.07
2019-01-26T14:26:07.853Z,9.10
2019-01-26T14:28:37.636Z,6.20
2019-01-26T14:31:08.286Z,7.50
2019-01-26T14:33:38.073Z,9.47
2019-01-26T14:36:07.646Z,7.70
2019-01-26T14:38:37.327Z,9.70
2019-01-26T14:41:07.661Z,10.90
2019-01-26T14:43:37.346Z,24.17
2019-01-26T14:46:06.950Z,12.50
2019-01-26T14:48:36.670Z,9.50
2019-01-26T14:51:06.626Z,10.77
2019-01-26T14:53:36.246Z,12.63
2019-01-26T14:56:06.126Z,14.83
2019-01-26T14:58:36.000Z,10.80
2019-01-26T15:01:05.847Z,15.00
2019-01-26T15:03:35.451Z,20.07
2019-01-26T15:06:05.284Z,13.20
2019-01-26T15:08:35.060Z,13.53
2019-01-26T15:11:04.898Z,11.23
2019-01-26T15:13:34.518Z,10.00
2019-01-26T15:16:04.463Z,10.40
2019-01-26T15:18:34.055Z,14.60
2019-01-26T15:21:04.558Z,13.93
2019-01-26T15:23:34.176Z,13.20
2019-01-26T15:26:04.480Z,13.30
2019-01-26T15:28:35.125Z,12.13
2019-01-26T15:31:04.871Z,17.17
2019-01-26T15:33:34.748Z,17.33
2019-01-26T15:36:08.871Z,17.33
2019-01-26T15:38:35.938Z,14.57
2019-01-26T15:41:05.645Z,14.37
2019-01-26T15:43:35.292Z,20.97
2019-01-26T15:46:04.975Z,12.20
2019-01-26T15:48:34.573Z,18.30
2019-01-26T15:51:04.255Z,12.20
2019-01-26T15:53:33.866Z,14.60
2019-01-26T15:56:03.457Z,11.27
2019-01-26T15:58:33.380Z,12.90
2019-01-26T16:01:02.978Z,13.10
2019-01-26T16:03:32.830Z,21.23
2019-01-26T16:06:02.734Z,16.97
2019-01-26T16:08:32.333Z,13.40
2019-01-26T16:11:01.926Z,17.30
2019-01-26T16:13:31.531Z,15.13
2019-01-26T16:16:01.206Z,15.07
2019-01-26T16:18:32.276Z,15.00
2019-01-26T16:21:01.890Z,16.57
2019-01-26T16:23:31.474Z,15.90
2019-01-26T16:26:01.087Z,18.57
2019-01-26T16:28:30.679Z,16.40
2019-01-26T16:31:00.380Z,15.07
2019-01-26T16:33:29.986Z,19.50
2019-01-26T16:35:59.603Z,19.50
2019-01-26T16:38:29.188Z,25.87
2019-01-26T16:40:58.793Z,12.57
2019-01-26T16:43:28.451Z,16.13
2019-01-26T16:45:58.066Z,14.17
2019-01-26T16:48:27.969Z,22.60
2019-01-26T16:50:57.590Z,12.50
2019-01-26T16:53:27.581Z,15.80
2019-01-26T16:55:57.287Z,15.30
2019-01-26T16:58:26.921Z,16.40
2019-01-26T17:00:58.691Z,16.40
2019-01-26T17:03:28.362Z,19.67
2019-01-26T17:05:57.988Z,18.63
2019-01-26T17:08:27.984Z,26.27
2019-01-26T17:10:57.763Z,17.43
2019-01-26T17:13:27.359Z,13.60
2019-01-26T17:15:57.117Z,21.40
2019-01-26T17:18:26.698Z,15.43
2019-01-26T17:20:56.327Z,19.73
2019-01-26T17:23:25.885Z,5.87
2019-01-26T17:25:55.491Z,5.87
2019-01-26T17:28:25.075Z,7.10
2019-01-26T17:30:54.726Z,5.10
2019-01-26T17:33:23.896Z,6.93
2019-01-26T17:35:53.495Z,6.60
2019-01-26T17:38:23.187Z,6.13
2019-01-26T17:40:54.512Z,5.37
2019-01-26T17:43:25.548Z,4.97
2019-01-26T17:45:55.179Z,5.70
2019-01-26T17:48:24.763Z,5.30
2019-01-26T17:50:54.354Z,6.03
2019-01-26T17:53:24.239Z,5.20
2019-01-26T17:55:54.098Z,5.57
2019-01-26T17:58:24.062Z,5.63
2019-01-26T18:00:58.206Z,6.10
2019-01-26T18:03:27.875Z,5.60
2019-01-26T18:05:57.551Z,6.27
2019-01-26T18:08:27.139Z,7.30
2019-01-26T18:10:57.488Z,6.87
2019-01-26T18:13:27.190Z,7.23
2019-01-26T18:15:56.802Z,8.03
2019-01-26T18:18:26.727Z,8.10
2019-01-26T18:20:56.739Z,9.10
2019-01-26T18:23:29.160Z,8.60
2019-01-26T18:25:58.751Z,9.90
2019-01-26T18:28:28.350Z,8.67
2019-01-26T18:30:58.370Z,13.10
2019-01-26T18:33:27.974Z,8.93
2019-01-26T18:35:57.572Z,9.83
2019-01-26T18:38:27.153Z,10.27
2019-01-26T18:40:56.770Z,9.47
2019-01-26T18:43:26.365Z,10.93
2019-01-26T18:45:55.956Z,9.27
2019-01-26T18:48:25.972Z,9.40
2019-01-26T18:50:56.381Z,10.67
2019-01-26T18:53:26.394Z,10.47
2019-01-26T18:55:56.000Z,12.23
2019-01-26T18:58:25.566Z,12.67
2019-01-26T19:00:55.166Z,13.13
2019-01-26T19:03:37.730Z,13.23
2019-01-26T19:06:07.926Z,15.93
2019-01-26T19:08:37.502Z,15.60
2019-01-26T19:11:07.115Z,13.80
2019-01-26T19:13:36.701Z,15.60
2019-01-26T19:16:06.471Z,15.10
2019-01-26T19:18:36.453Z,13.73
2019-01-26T19:21:06.320Z,16.23
2019-01-26T19:23:36.146Z,20.30
2019-01-26T19:26:06.207Z,14.27
2019-01-26T19:28:35.882Z,13.80
2019-01-26T19:31:06.007Z,14.67
2019-01-26T19:33:35.782Z,12.43
2019-01-26T19:36:05.870Z,13.87
2019-01-26T19:38:35.531Z,12.27
2019-01-26T19:41:06.378Z,11.40
2019-01-26T19:43:36.036Z,13.67
2019-01-26T19:46:05.979Z,9.43
2019-01-26T19:48:35.598Z,14.53
2019-01-26T19:51:09.874Z,11.60
2019-01-26T19:53:37.214Z,11.50
2019-01-26T19:56:07.232Z,10.80
2019-01-26T19:58:37.150Z,11.43
2019-01-26T20:01:06.757Z,12.07
2019-01-26T20:03:36.431Z,14.90
2019-01-26T20:06:06.294Z,12.60
2019-01-26T20:08:35.946Z,14.50
2019-01-26T20:11:05.619Z,19.20
2019-01-26T20:13:35.233Z,15.07
2019-01-26T20:16:04.977Z,13.83
2019-01-26T20:18:34.667Z,17.63
2019-01-26T20:21:04.730Z,17.33
2019-01-26T20:23:34.349Z,15.67
2019-01-26T20:26:04.569Z,15.07
2019-01-26T20:28:34.242Z,19.07
2019-01-26T20:31:04.006Z,15.73
2019-01-26T20:33:33.910Z,15.83
2019-01-26T20:36:03.574Z,17.10
2019-01-26T20:38:33.195Z,14.73
2019-01-26T20:41:02.872Z,15.20
2019-01-26T20:43:33.453Z,16.73
2019-01-26T20:46:04.390Z,18.50
2019-01-26T20:48:34.079Z,17.47
2019-01-26T20:51:04.895Z,22.30
2019-01-26T20:53:34.571Z,15.97
2019-01-26T20:56:04.274Z,15.80
2019-01-26T20:58:33.963Z,15.60
2019-01-26T21:01:04.121Z,16.10
2019-01-26T21:03:33.743Z,19.67
2019-01-26T21:06:04.710Z,17.43
2019-01-26T21:08:34.394Z,18.70
2019-01-26T21:11:04.659Z,19.93
2019-01-26T21:13:34.269Z,19.63
2019-01-26T21:16:04.007Z,18.30
2019-01-26T21:18:33.658Z,18.63
2019-01-26T21:21:03.245Z,21.33
2019-01-26T21:23:32.850Z,21.70
2019-01-26T21:26:02.448Z,21.60
2019-01-26T21:28:32.227Z,22.97
2019-01-26T21:31:01.887Z,20.53
2019-01-26T21:33:31.525Z,24.13
2019-01-26T21:36:01.121Z,25.57
2019-01-26T21:38:30.737Z,24.07
2019-01-26T21:41:01.403Z,24.43
2019-01-26T21:43:31.089Z,22.13
2019-01-26T21:46:00.684Z,20.57
2019-01-26T21:48:30.352Z,20.70
2019-01-26T21:51:00.536Z,21.70
2019-01-26T21:53:30.143Z,23.20
2019-01-26T21:55:59.743Z,21.93
2019-01-26T21:58:29.674Z,24.20
2019-01-26T22:00:59.526Z,27.57
2019-01-26T22:03:29.150Z,25.97
2019-01-26T22:05:59.012Z,22.63
2019-01-26T22:08:28.635Z,30.10
2019-01-26T22:10:58.520Z,23.13
2019-01-26T22:13:28.181Z,24.37
2019-01-26T22:15:58.095Z,22.67
2019-01-26T22:18:27.786Z,22.50
2019-01-26T22:20:57.412Z,27.13
2019-01-26T22:23:27.023Z,26.30
2019-01-26T22:25:56.914Z,24.73
2019-01-26T22:28:26.567Z,26.30
2019-01-26T22:30:56.150Z,22.77
2019-01-26T22:33:25.810Z,23.63
2019-01-26T22:35:55.427Z,30.97
2019-01-26T22:38:25.051Z,22.90
2019-01-26T22:40:54.700Z,21.57
2019-01-26T22:43:24.406Z,27.57
2019-01-26T22:45:54.069Z,27.30
2019-01-26T22:48:23.859Z,24.20
2019-01-26T22:50:53.466Z,21.47
2019-01-26T22:53:23.504Z,25.20
2019-01-26T22:55:53.126Z,24.10
2019-01-26T22:58:23.031Z,22.70
2019-01-26T23:01:32.683Z,26.20
2019-01-26T23:04:43.427Z,22.00
2019-01-26T23:07:43.947Z,19.43
2019-01-26T23:10:58.019Z,24.53
2019-01-26T23:13:59.067Z,24.00
2019-01-26T23:17:05.191Z,25.10
2019-01-26T23:19:48.677Z,27.07
2019-01-26T23:22:57.046Z,22.97
2019-01-26T23:26:10.328Z,23.93
2019-01-26T23:29:02.443Z,23.53
2019-01-26T23:31:33.374Z,22.57
2019-01-26T23:34:03.069Z,22.57
2019-01-26T23:36:32.675Z,22.93
2019-01-26T23:39:02.740Z,24.07
2019-01-26T23:41:34.154Z,27.03
2019-01-26T23:44:03.927Z,21.00
2019-01-26T23:46:33.542Z,22.50
2019-01-26T23:49:03.437Z,21.17
2019-01-26T23:51:33.210Z,24.30
2019-01-26T23:54:03.105Z,23.77
2019-01-26T23:56:32.706Z,23.67
2019-01-26T23:59:02.398Z,25.33
